sensor_id;sensor_type;location;lat;lon;timestamp;pressure;altitude;pressure_sealevel;temperature;humidity
64080;BME280;51042;49.696;10.808;2023-07-29T00:02:03;97984.28;;;17.21;100.00
64080;BME280;51042;49.696;10.808;2023-07-29T00:04:29;97990.59;;;17.21;100.00
64080;BME280;51042;49.696;10.808;2023-07-29T00:06:54;97991.59;;;17.24;100.00
64080;BME280;51042;49.696;10.808;2023-07-29T00:09:20;97974.47;;;17.25;100.00
64080;BME280;51042;49.696;10.808;2023-07-29T00:11:45;97986.59;;;17.28;100.00
64080;BME280;51042;49.696;10.808;2023-07-29T00:14:10;97971.47;;;17.29;100.00
64080;BME280;51042;49.696;10.808;2023-07-29T00:16:35;97971.75;;;17.31;100.00
64080;BME280;51042;49.696;10.808;2023-07-29T00:19:01;97969.75;;;17.31;100.00
64080;BME280;51042;49.696;10.808;2023-07-29T00:21:27;97970.50;;;17.32;100.00
64080;BME280;51042;49.696;10.808;2023-07-29T00:23:52;97972.22;;;17.29;100.00
64080;BME280;51042;49.696;10.808;2023-07-29T00:26:17;97963.66;;;17.27;100.00
64080;BME280;51042;49.696;10.808;2023-07-29T00:28:42;97973.22;;;17.26;100.00
64080;BME280;51042;49.696;10.808;2023-07-29T00:31:08;97974.19;;;17.23;100.00
64080;BME280;51042;49.696;10.808;2023-07-29T00:33:33;97971.94;;;17.22;100.00
64080;BME280;51042;49.696;10.808;2023-07-29T00:35:58;97978.72;;;17.21;100.00
64080;BME280;51042;49.696;10.808;2023-07-29T00:38:26;97976.44;;;17.19;100.00
64080;BME280;51042;49.696;10.808;2023-07-29T00:40:51;97966.31;;;17.16;100.00
64080;BME280;51042;49.696;10.808;2023-07-29T00:43:17;97968.06;;;17.13;100.00
64080;BME280;51042;49.696;10.808;2023-07-29T00:45:42;97970.06;;;17.13;100.00
64080;BME280;51042;49.696;10.808;2023-07-29T00:48:08;97974.09;;;17.12;100.00
64080;BME280;51042;49.696;10.808;2023-07-29T00:50:33;97981.66;;;17.11;100.00
64080;BME280;51042;49.696;10.808;2023-07-29T00:52:58;97967.78;;;17.11;100.00
64080;BME280;51042;49.696;10.808;2023-07-29T00:55:23;97971.84;;;17.16;100.00
64080;BME280;51042;49.696;10.808;2023-07-29T00:57:50;97967.06;;;17.17;100.00
64080;BME280;51042;49.696;10.808;2023-07-29T01:00:16;97968.59;;;17.18;100.00
64080;BME280;51042;49.696;10.808;2023-07-29T01:02:42;97985.47;;;17.14;100.00
64080;BME280;51042;49.696;10.808;2023-07-29T01:05:07;97980.69;;;17.14;100.00
64080;BME280;51042;49.696;10.808;2023-07-29T01:07:36;97973.13;;;17.15;100.00
64080;BME280;51042;49.696;10.808;2023-07-29T01:10:08;97977.16;;;17.14;100.00
64080;BME280;51042;49.696;10.808;2023-07-29T01:15:16;97975.22;;;17.00;100.00
64080;BME280;51042;49.696;10.808;2023-07-29T01:17:46;97970.38;;;16.95;100.00
64080;BME280;51042;49.696;10.808;2023-07-29T01:20:13;97975.94;;;16.95;100.00
64080;BME280;51042;49.696;10.808;2023-07-29T01:22:39;97988.06;;;16.97;100.00
64080;BME280;51042;49.696;10.808;2023-07-29T01:25:04;97982.78;;;16.99;100.00
64080;BME280;51042;49.696;10.808;2023-07-29T01:27:30;97988.88;;;17.03;100.00
64080;BME280;51042;49.696;10.808;2023-07-29T01:29:55;97988.94;;;17.09;100.00
64080;BME280;51042;49.696;10.808;2023-07-29T01:32:34;97982.94;;;17.16;100.00
64080;BME280;51042;49.696;10.808;2023-07-29T01:35:03;97983.50;;;17.20;100.00
64080;BME280;51042;49.696;10.808;2023-07-29T01:37:32;97983.03;;;17.22;100.00
64080;BME280;51042;49.696;10.808;2023-07-29T01:39:59;97986.81;;;17.24;100.00
64080;BME280;51042;49.696;10.808;2023-07-29T01:42:25;97985.84;;;17.27;100.00
64080;BME280;51042;49.696;10.808;2023-07-29T01:44:51;97975.53;;;17.28;100.00
64080;BME280;51042;49.696;10.808;2023-07-29T01:47:16;97974.75;;;17.27;100.00
64080;BME280;51042;49.696;10.808;2023-07-29T01:49:41;97979.75;;;17.23;100.00
64080;BME280;51042;49.696;10.808;2023-07-29T01:52:07;97979.44;;;17.16;100.00
64080;BME280;51042;49.696;10.808;2023-07-29T01:54:32;97979.31;;;17.04;100.00
64080;BME280;51042;49.696;10.808;2023-07-29T01:56:57;97970.56;;;16.86;100.00
64080;BME280;51042;49.696;10.808;2023-07-29T01:59:22;97978.47;;;16.72;100.00
64080;BME280;51042;49.696;10.808;2023-07-29T02:01:47;97981.59;;;16.60;100.00
64080;BME280;51042;49.696;10.808;2023-07-29T02:04:13;97978.66;;;16.49;100.00
64080;BME280;51042;49.696;10.808;2023-07-29T02:06:38;97966.19;;;16.39;100.00
64080;BME280;51042;49.696;10.808;2023-07-29T02:09:04;97957.25;;;16.29;100.00
64080;BME280;51042;49.696;10.808;2023-07-29T02:11:29;97959.97;;;16.23;100.00
64080;BME280;51042;49.696;10.808;2023-07-29T02:13:54;97976.97;;;16.16;100.00
64080;BME280;51042;49.696;10.808;2023-07-29T02:16:20;97958.97;;;16.06;100.00
64080;BME280;51042;49.696;10.808;2023-07-29T02:18:45;97957.84;;;15.98;100.00
64080;BME280;51042;49.696;10.808;2023-07-29T02:21:11;97960.06;;;15.94;100.00
64080;BME280;51042;49.696;10.808;2023-07-29T02:23:36;97946.16;;;15.88;100.00
64080;BME280;51042;49.696;10.808;2023-07-29T02:26:01;97940.63;;;15.88;100.00
64080;BME280;51042;49.696;10.808;2023-07-29T02:28:26;97941.84;;;15.87;100.00
64080;BME280;51042;49.696;10.808;2023-07-29T02:31:08;97934.03;;;15.86;100.00
64080;BME280;51042;49.696;10.808;2023-07-29T02:33:34;97925.72;;;15.86;100.00
64080;BME280;51042;49.696;10.808;2023-07-29T02:35:59;97927.72;;;15.85;100.00
64080;BME280;51042;49.696;10.808;2023-07-29T02:38:24;97917.16;;;15.84;100.00
64080;BME280;51042;49.696;10.808;2023-07-29T02:40:49;97921.63;;;15.81;100.00
64080;BME280;51042;49.696;10.808;2023-07-29T02:43:14;97917.84;;;15.79;100.00
64080;BME280;51042;49.696;10.808;2023-07-29T02:45:40;97912.97;;;15.74;100.00
64080;BME280;51042;49.696;10.808;2023-07-29T02:48:05;97921.47;;;15.70;100.00
64080;BME280;51042;49.696;10.808;2023-07-29T02:50:31;97912.56;;;15.61;100.00
64080;BME280;51042;49.696;10.808;2023-07-29T02:52:56;97909.97;;;15.57;100.00
64080;BME280;51042;49.696;10.808;2023-07-29T02:55:21;97924.00;;;15.54;100.00
64080;BME280;51042;49.696;10.808;2023-07-29T02:57:47;97923.69;;;15.51;100.00
64080;BME280;51042;49.696;10.808;2023-07-29T03:00:12;97934.19;;;15.47;100.00
64080;BME280;51042;49.696;10.808;2023-07-29T03:02:38;97939.13;;;15.43;100.00
64080;BME280;51042;49.696;10.808;2023-07-29T03:05:03;97934.09;;;15.42;100.00
64080;BME280;51042;49.696;10.808;2023-07-29T03:07:28;97934.28;;;15.38;100.00
64080;BME280;51042;49.696;10.808;2023-07-29T03:09:53;97925.44;;;15.34;100.00
64080;BME280;51042;49.696;10.808;2023-07-29T03:12:19;97935.25;;;15.35;100.00
64080;BME280;51042;49.696;10.808;2023-07-29T03:14:47;97933.72;;;15.34;100.00
64080;BME280;51042;49.696;10.808;2023-07-29T03:17:12;97934.41;;;15.29;100.00
64080;BME280;51042;49.696;10.808;2023-07-29T03:19:37;97925.63;;;15.31;100.00
64080;BME280;51042;49.696;10.808;2023-07-29T03:22:02;97925.91;;;15.33;100.00
64080;BME280;51042;49.696;10.808;2023-07-29T03:24:27;97927.72;;;15.36;100.00
64080;BME280;51042;49.696;10.808;2023-07-29T03:26:53;97933.25;;;15.36;100.00
64080;BME280;51042;49.696;10.808;2023-07-29T03:29:19;97930.09;;;15.43;100.00
64080;BME280;51042;49.696;10.808;2023-07-29T03:31:44;97923.13;;;15.47;100.00
64080;BME280;51042;49.696;10.808;2023-07-29T03:34:09;97921.59;;;15.46;100.00
64080;BME280;51042;49.696;10.808;2023-07-29T03:36:36;97921.41;;;15.50;100.00
64080;BME280;51042;49.696;10.808;2023-07-29T03:39:01;97924.00;;;15.54;100.00
64080;BME280;51042;49.696;10.808;2023-07-29T03:41:28;97919.78;;;15.58;100.00
64080;BME280;51042;49.696;10.808;2023-07-29T03:43:53;97915.31;;;15.61;100.00
64080;BME280;51042;49.696;10.808;2023-07-29T03:46:18;97911.09;;;15.65;100.00
64080;BME280;51042;49.696;10.808;2023-07-29T03:48:46;97903.91;;;15.73;100.00
64080;BME280;51042;49.696;10.808;2023-07-29T03:51:11;97892.19;;;15.78;100.00
64080;BME280;51042;49.696;10.808;2023-07-29T03:53:36;97904.34;;;15.86;100.00
64080;BME280;51042;49.696;10.808;2023-07-29T03:56:02;97911.31;;;15.97;100.00
64080;BME280;51042;49.696;10.808;2023-07-29T03:58:27;97893.78;;;16.05;100.00
64080;BME280;51042;49.696;10.808;2023-07-29T04:00:52;97898.44;;;16.14;100.00
64080;BME280;51042;49.696;10.808;2023-07-29T04:03:17;97896.75;;;16.22;100.00
64080;BME280;51042;49.696;10.808;2023-07-29T04:05:42;97888.56;;;16.33;100.00
64080;BME280;51042;49.696;10.808;2023-07-29T04:08:07;97884.44;;;16.43;100.00
64080;BME280;51042;49.696;10.808;2023-07-29T04:10:32;97894.03;;;16.48;100.00
64080;BME280;51042;49.696;10.808;2023-07-29T04:13:00;97888.06;;;16.55;100.00
64080;BME280;51042;49.696;10.808;2023-07-29T04:15:25;97897.81;;;16.70;100.00
64080;BME280;51042;49.696;10.808;2023-07-29T04:17:50;97893.69;;;16.86;100.00
64080;BME280;51042;49.696;10.808;2023-07-29T04:20:15;97890.38;;;17.08;100.00
64080;BME280;51042;49.696;10.808;2023-07-29T04:22:40;97889.06;;;17.35;100.00
64080;BME280;51042;49.696;10.808;2023-07-29T04:25:06;97891.84;;;17.66;100.00
64080;BME280;51042;49.696;10.808;2023-07-29T04:27:31;97892.28;;;18.02;100.00
64080;BME280;51042;49.696;10.808;2023-07-29T04:29:56;97902.06;;;18.40;100.00
64080;BME280;51042;49.696;10.808;2023-07-29T04:32:21;97907.44;;;18.60;100.00
64080;BME280;51042;49.696;10.808;2023-07-29T04:34:46;97909.22;;;18.63;100.00
64080;BME280;51042;49.696;10.808;2023-07-29T04:37:12;97909.66;;;18.50;100.00
64080;BME280;51042;49.696;10.808;2023-07-29T04:39:37;97914.69;;;18.41;100.00
64080;BME280;51042;49.696;10.808;2023-07-29T04:42:02;97915.16;;;18.33;100.00
64080;BME280;51042;49.696;10.808;2023-07-29T04:44:27;97903.72;;;18.15;100.00
64080;BME280;51042;49.696;10.808;2023-07-29T04:46:52;97891.47;;;17.53;100.00
64080;BME280;51042;49.696;10.808;2023-07-29T04:49:17;97886.53;;;17.31;100.00
64080;BME280;51042;49.696;10.808;2023-07-29T04:51:43;97893.72;;;17.18;100.00
64080;BME280;51042;49.696;10.808;2023-07-29T04:54:08;97882.25;;;17.04;100.00
64080;BME280;51042;49.696;10.808;2023-07-29T04:56:33;97881.91;;;16.91;100.00
64080;BME280;51042;49.696;10.808;2023-07-29T04:58:58;97877.06;;;16.86;100.00
64080;BME280;51042;49.696;10.808;2023-07-29T05:01:23;97875.00;;;16.81;100.00
64080;BME280;51042;49.696;10.808;2023-07-29T05:03:49;97858.66;;;16.83;100.00
64080;BME280;51042;49.696;10.808;2023-07-29T05:06:15;97856.38;;;16.82;100.00
64080;BME280;51042;49.696;10.808;2023-07-29T05:08:40;97864.19;;;16.83;100.00
64080;BME280;51042;49.696;10.808;2023-07-29T05:11:05;97860.94;;;16.85;100.00
64080;BME280;51042;49.696;10.808;2023-07-29T05:13:30;97858.97;;;16.91;100.00
64080;BME280;51042;49.696;10.808;2023-07-29T05:15:55;97839.34;;;16.94;100.00
64080;BME280;51042;49.696;10.808;2023-07-29T05:18:21;97852.25;;;16.97;100.00
64080;BME280;51042;49.696;10.808;2023-07-29T05:20:46;97858.03;;;16.99;100.00
64080;BME280;51042;49.696;10.808;2023-07-29T05:23:11;97856.31;;;17.02;100.00
64080;BME280;51042;49.696;10.808;2023-07-29T05:25:37;97858.59;;;17.03;100.00
64080;BME280;51042;49.696;10.808;2023-07-29T05:28:02;97866.19;;;17.08;100.00
64080;BME280;51042;49.696;10.808;2023-07-29T05:30:28;97862.38;;;17.06;100.00
64080;BME280;51042;49.696;10.808;2023-07-29T05:32:56;97864.44;;;17.11;100.00
64080;BME280;51042;49.696;10.808;2023-07-29T05:35:21;97865.28;;;17.23;100.00
64080;BME280;51042;49.696;10.808;2023-07-29T05:37:46;97872.22;;;17.38;100.00
64080;BME280;51042;49.696;10.808;2023-07-29T05:40:11;97863.19;;;17.49;100.00
64080;BME280;51042;49.696;10.808;2023-07-29T05:42:37;97864.28;;;17.57;100.00
64080;BME280;51042;49.696;10.808;2023-07-29T05:45:02;97867.63;;;17.67;100.00
64080;BME280;51042;49.696;10.808;2023-07-29T05:47:27;97874.69;;;17.68;100.00
64080;BME280;51042;49.696;10.808;2023-07-29T05:49:52;97872.69;;;17.68;100.00
64080;BME280;51042;49.696;10.808;2023-07-29T05:52:18;97876.88;;;17.58;100.00
64080;BME280;51042;49.696;10.808;2023-07-29T05:54:43;97875.16;;;17.61;100.00
64080;BME280;51042;49.696;10.808;2023-07-29T05:57:09;97880.22;;;17.62;100.00
64080;BME280;51042;49.696;10.808;2023-07-29T05:59:34;97876.94;;;17.64;100.00
64080;BME280;51042;49.696;10.808;2023-07-29T06:01:59;97878.47;;;17.70;100.00
64080;BME280;51042;49.696;10.808;2023-07-29T06:04:24;97889.91;;;17.78;100.00
64080;BME280;51042;49.696;10.808;2023-07-29T06:06:49;97884.84;;;17.76;100.00
64080;BME280;51042;49.696;10.808;2023-07-29T06:09:14;97892.88;;;17.69;100.00
64080;BME280;51042;49.696;10.808;2023-07-29T06:11:40;97889.56;;;17.65;100.00
64080;BME280;51042;49.696;10.808;2023-07-29T06:14:05;97880.41;;;17.59;100.00
64080;BME280;51042;49.696;10.808;2023-07-29T06:16:30;97873.09;;;17.55;100.00
64080;BME280;51042;49.696;10.808;2023-07-29T06:18:55;97882.16;;;17.56;100.00
64080;BME280;51042;49.696;10.808;2023-07-29T06:21:20;97887.47;;;17.60;100.00
64080;BME280;51042;49.696;10.808;2023-07-29T06:23:46;97899.38;;;17.60;100.00
64080;BME280;51042;49.696;10.808;2023-07-29T06:26:11;97897.56;;;17.57;100.00
64080;BME280;51042;49.696;10.808;2023-07-29T06:28:36;97882.38;;;17.52;100.00
64080;BME280;51042;49.696;10.808;2023-07-29T06:31:01;97882.63;;;17.49;100.00
64080;BME280;51042;49.696;10.808;2023-07-29T06:33:26;97874.41;;;17.60;100.00
64080;BME280;51042;49.696;10.808;2023-07-29T06:35:52;97880.31;;;17.79;100.00
64080;BME280;51042;49.696;10.808;2023-07-29T06:38:17;97883.91;;;17.90;100.00
64080;BME280;51042;49.696;10.808;2023-07-29T06:40:46;97885.94;;;17.95;100.00
64080;BME280;51042;49.696;10.808;2023-07-29T06:43:11;97889.47;;;17.90;100.00
64080;BME280;51042;49.696;10.808;2023-07-29T06:45:37;97900.28;;;17.88;100.00
64080;BME280;51042;49.696;10.808;2023-07-29T06:48:02;97906.06;;;17.79;100.00
64080;BME280;51042;49.696;10.808;2023-07-29T06:50:27;97901.44;;;17.71;100.00
64080;BME280;51042;49.696;10.808;2023-07-29T06:52:52;97910.28;;;17.69;100.00
64080;BME280;51042;49.696;10.808;2023-07-29T06:55:17;97908.75;;;17.68;100.00
64080;BME280;51042;49.696;10.808;2023-07-29T06:57:43;97906.00;;;17.68;100.00
64080;BME280;51042;49.696;10.808;2023-07-29T07:00:08;97903.75;;;17.72;100.00
64080;BME280;51042;49.696;10.808;2023-07-29T07:02:34;97903.28;;;17.79;100.00
64080;BME280;51042;49.696;10.808;2023-07-29T07:04:59;97909.16;;;17.92;100.00
64080;BME280;51042;49.696;10.808;2023-07-29T07:07:24;97907.69;;;18.03;100.00
64080;BME280;51042;49.696;10.808;2023-07-29T07:09:49;97898.91;;;18.10;100.00
64080;BME280;51042;49.696;10.808;2023-07-29T07:12:14;97887.78;;;18.10;100.00
64080;BME280;51042;49.696;10.808;2023-07-29T07:14:40;97883.50;;;18.09;100.00
64080;BME280;51042;49.696;10.808;2023-07-29T07:17:05;97870.66;;;18.11;100.00
64080;BME280;51042;49.696;10.808;2023-07-29T07:19:30;97867.31;;;18.07;100.00
64080;BME280;51042;49.696;10.808;2023-07-29T07:21:55;97866.06;;;18.08;100.00
64080;BME280;51042;49.696;10.808;2023-07-29T07:24:20;97879.41;;;17.99;100.00
64080;BME280;51042;49.696;10.808;2023-07-29T07:26:46;97879.16;;;17.97;100.00
64080;BME280;51042;49.696;10.808;2023-07-29T07:29:11;97866.25;;;17.93;100.00
64080;BME280;51042;49.696;10.808;2023-07-29T07:31:36;97863.75;;;17.95;100.00
64080;BME280;51042;49.696;10.808;2023-07-29T07:34:01;97866.84;;;18.09;100.00
64080;BME280;51042;49.696;10.808;2023-07-29T07:36:29;97868.41;;;18.21;100.00
64080;BME280;51042;49.696;10.808;2023-07-29T07:38:55;97862.59;;;18.30;100.00
64080;BME280;51042;49.696;10.808;2023-07-29T07:41:20;97865.91;;;18.34;100.00
64080;BME280;51042;49.696;10.808;2023-07-29T07:43:45;97855.31;;;18.38;100.00
64080;BME280;51042;49.696;10.808;2023-07-29T07:46:10;97834.34;;;18.43;100.00
64080;BME280;51042;49.696;10.808;2023-07-29T07:48:36;97831.34;;;18.41;100.00
64080;BME280;51042;49.696;10.808;2023-07-29T07:51:09;97817.19;;;18.39;100.00
64080;BME280;51042;49.696;10.808;2023-07-29T07:53:35;97822.25;;;18.40;100.00
64080;BME280;51042;49.696;10.808;2023-07-29T07:56:00;97843.72;;;18.45;100.00
64080;BME280;51042;49.696;10.808;2023-07-29T07:58:25;97849.78;;;18.44;100.00
64080;BME280;51042;49.696;10.808;2023-07-29T08:00:50;97844.72;;;18.48;100.00
64080;BME280;51042;49.696;10.808;2023-07-29T08:03:15;97850.06;;;18.51;100.00
64080;BME280;51042;49.696;10.808;2023-07-29T08:05:40;97838.72;;;18.60;100.00
64080;BME280;51042;49.696;10.808;2023-07-29T08:08:08;97840.53;;;18.80;100.00
64080;BME280;51042;49.696;10.808;2023-07-29T08:10:34;97849.41;;;19.06;100.00
64080;BME280;51042;49.696;10.808;2023-07-29T08:12:59;97845.56;;;19.37;100.00
64080;BME280;51042;49.696;10.808;2023-07-29T08:15:24;97835.19;;;19.66;100.00
64080;BME280;51042;49.696;10.808;2023-07-29T08:17:49;97829.28;;;19.86;100.00
64080;BME280;51042;49.696;10.808;2023-07-29T08:20:14;97839.38;;;20.00;100.00
64080;BME280;51042;49.696;10.808;2023-07-29T08:22:40;97849.72;;;20.05;100.00
64080;BME280;51042;49.696;10.808;2023-07-29T08:25:05;97860.63;;;19.97;100.00
64080;BME280;51042;49.696;10.808;2023-07-29T08:27:30;97864.50;;;19.83;100.00
64080;BME280;51042;49.696;10.808;2023-07-29T08:29:55;97856.63;;;19.82;100.00
64080;BME280;51042;49.696;10.808;2023-07-29T08:32:21;97865.72;;;19.93;100.00
64080;BME280;51042;49.696;10.808;2023-07-29T08:34:46;97870.97;;;20.14;100.00
64080;BME280;51042;49.696;10.808;2023-07-29T08:37:11;97868.38;;;20.27;100.00
64080;BME280;51042;49.696;10.808;2023-07-29T08:39:36;97874.41;;;20.42;100.00
64080;BME280;51042;49.696;10.808;2023-07-29T08:42:04;97868.25;;;20.60;100.00
64080;BME280;51042;49.696;10.808;2023-07-29T08:44:43;97875.81;;;20.65;100.00
64080;BME280;51042;49.696;10.808;2023-07-29T08:47:09;97883.81;;;20.80;100.00
64080;BME280;51042;49.696;10.808;2023-07-29T08:49:34;97877.97;;;20.84;100.00
64080;BME280;51042;49.696;10.808;2023-07-29T08:52:00;97875.19;;;20.84;100.00
64080;BME280;51042;49.696;10.808;2023-07-29T08:54:26;97878.25;;;20.80;100.00
64080;BME280;51042;49.696;10.808;2023-07-29T08:56:51;97875.88;;;20.95;100.00
64080;BME280;51042;49.696;10.808;2023-07-29T08:59:17;97877.25;;;21.18;100.00
64080;BME280;51042;49.696;10.808;2023-07-29T09:01:42;97874.34;;;21.30;100.00
64080;BME280;51042;49.696;10.808;2023-07-29T09:04:08;97872.47;;;21.43;100.00
64080;BME280;51042;49.696;10.808;2023-07-29T09:06:33;97873.56;;;21.59;100.00
64080;BME280;51042;49.696;10.808;2023-07-29T09:09:00;97869.50;;;21.84;100.00
64080;BME280;51042;49.696;10.808;2023-07-29T09:11:26;97882.91;;;22.16;100.00
64080;BME280;51042;49.696;10.808;2023-07-29T09:13:52;97884.88;;;22.21;100.00
64080;BME280;51042;49.696;10.808;2023-07-29T09:16:18;97892.34;;;22.13;100.00
64080;BME280;51042;49.696;10.808;2023-07-29T09:18:43;97897.06;;;22.42;100.00
64080;BME280;51042;49.696;10.808;2023-07-29T09:21:08;97895.13;;;22.56;100.00
64080;BME280;51042;49.696;10.808;2023-07-29T09:23:40;97889.81;;;22.33;100.00
64080;BME280;51042;49.696;10.808;2023-07-29T09:26:06;97898.31;;;22.04;100.00
64080;BME280;51042;49.696;10.808;2023-07-29T09:28:35;97893.63;;;22.12;100.00
64080;BME280;51042;49.696;10.808;2023-07-29T09:31:00;97902.19;;;22.19;100.00
64080;BME280;51042;49.696;10.808;2023-07-29T09:33:26;97897.06;;;22.42;100.00
64080;BME280;51042;49.696;10.808;2023-07-29T09:35:51;97901.03;;;22.90;100.00
64080;BME280;51042;49.696;10.808;2023-07-29T09:38:16;97908.63;;;23.58;100.00
64080;BME280;51042;49.696;10.808;2023-07-29T09:40:41;97902.06;;;23.95;100.00
64080;BME280;51042;49.696;10.808;2023-07-29T09:43:08;97905.47;;;23.49;100.00
64080;BME280;51042;49.696;10.808;2023-07-29T09:45:34;97897.06;;;23.49;100.00
64080;BME280;51042;49.696;10.808;2023-07-29T09:47:59;97895.09;;;24.15;100.00
64080;BME280;51042;49.696;10.808;2023-07-29T09:50:24;97894.88;;;24.26;100.00
64080;BME280;51042;49.696;10.808;2023-07-29T09:52:50;97889.50;;;24.42;100.00
64080;BME280;51042;49.696;10.808;2023-07-29T09:55:20;97888.78;;;24.62;100.00
64080;BME280;51042;49.696;10.808;2023-07-29T09:57:46;97886.06;;;25.37;100.00
64080;BME280;51042;49.696;10.808;2023-07-29T10:00:11;97874.66;;;25.64;99.29
64080;BME280;51042;49.696;10.808;2023-07-29T10:02:40;97873.31;;;25.57;96.78
64080;BME280;51042;49.696;10.808;2023-07-29T10:05:06;97867.91;;;25.59;100.00
64080;BME280;51042;49.696;10.808;2023-07-29T10:07:33;97865.75;;;24.90;99.95
64080;BME280;51042;49.696;10.808;2023-07-29T10:09:58;97854.34;;;24.27;100.00
64080;BME280;51042;49.696;10.808;2023-07-29T10:12:24;97854.97;;;23.81;100.00
64080;BME280;51042;49.696;10.808;2023-07-29T10:14:49;97864.03;;;23.74;100.00
64080;BME280;51042;49.696;10.808;2023-07-29T10:17:15;97850.22;;;24.42;100.00
64080;BME280;51042;49.696;10.808;2023-07-29T10:19:40;97845.81;;;24.20;100.00
64080;BME280;51042;49.696;10.808;2023-07-29T10:22:07;97860.38;;;23.92;100.00
64080;BME280;51042;49.696;10.808;2023-07-29T10:24:33;97868.38;;;24.01;100.00
64080;BME280;51042;49.696;10.808;2023-07-29T10:26:59;97867.22;;;24.57;100.00
64080;BME280;51042;49.696;10.808;2023-07-29T10:29:24;97869.25;;;25.03;96.68
64080;BME280;51042;49.696;10.808;2023-07-29T10:31:53;97864.09;;;25.15;93.45
64080;BME280;51042;49.696;10.808;2023-07-29T10:34:20;97877.94;;;24.92;99.63
64080;BME280;51042;49.696;10.808;2023-07-29T10:36:46;97869.38;;;25.39;93.27
64080;BME280;51042;49.696;10.808;2023-07-29T10:39:12;97873.88;;;25.14;96.16
64080;BME280;51042;49.696;10.808;2023-07-29T10:47:13;97876.34;;;23.39;100.00
64080;BME280;51042;49.696;10.808;2023-07-29T10:49:42;97864.34;;;23.25;100.00
64080;BME280;51042;49.696;10.808;2023-07-29T10:52:07;97870.09;;;23.46;100.00
64080;BME280;51042;49.696;10.808;2023-07-29T10:54:45;97872.31;;;23.79;100.00
64080;BME280;51042;49.696;10.808;2023-07-29T11:00:11;97872.81;;;24.70;92.22
64080;BME280;51042;49.696;10.808;2023-07-29T11:02:40;97870.06;;;25.11;87.70
64080;BME280;51042;49.696;10.808;2023-07-29T11:05:06;97866.66;;;25.05;88.31
64080;BME280;51042;49.696;10.808;2023-07-29T11:10:41;97844.06;;;25.32;86.87
64080;BME280;51042;49.696;10.808;2023-07-29T11:13:07;97854.06;;;25.89;84.90
64080;BME280;51042;49.696;10.808;2023-07-29T11:15:32;97853.25;;;26.10;80.54
64080;BME280;51042;49.696;10.808;2023-07-29T11:17:59;97858.63;;;26.36;77.83
64080;BME280;51042;49.696;10.808;2023-07-29T11:20:31;97855.56;;;26.62;79.63
64080;BME280;51042;49.696;10.808;2023-07-29T11:22:57;97853.81;;;27.26;77.14
64080;BME280;51042;49.696;10.808;2023-07-29T11:25:35;97856.09;;;27.42;73.05
64080;BME280;51042;49.696;10.808;2023-07-29T11:28:01;97840.59;;;26.82;73.08
64080;BME280;51042;49.696;10.808;2023-07-29T11:30:26;97834.03;;;26.80;73.00
64080;BME280;51042;49.696;10.808;2023-07-29T11:32:52;97834.63;;;26.94;73.83
64080;BME280;51042;49.696;10.808;2023-07-29T11:35:18;97849.13;;;27.13;72.79
64080;BME280;51042;49.696;10.808;2023-07-29T11:37:44;97851.00;;;27.86;70.82
64080;BME280;51042;49.696;10.808;2023-07-29T11:40:12;97849.28;;;27.98;68.02
64080;BME280;51042;49.696;10.808;2023-07-29T11:42:38;97839.16;;;27.80;66.46
64080;BME280;51042;49.696;10.808;2023-07-29T11:45:03;97841.41;;;27.89;70.73
64080;BME280;51042;49.696;10.808;2023-07-29T11:47:31;97851.38;;;27.90;69.99
64080;BME280;51042;49.696;10.808;2023-07-29T11:49:59;97843.41;;;28.19;68.20
64080;BME280;51042;49.696;10.808;2023-07-29T11:52:28;97837.03;;;28.03;70.30
64080;BME280;51042;49.696;10.808;2023-07-29T11:54:53;97835.41;;;27.32;70.71
64080;BME280;51042;49.696;10.808;2023-07-29T11:57:19;97841.06;;;27.40;69.22
64080;BME280;51042;49.696;10.808;2023-07-29T11:59:44;97841.81;;;27.25;70.91
64080;BME280;51042;49.696;10.808;2023-07-29T12:02:11;97834.81;;;26.88;70.81
64080;BME280;51042;49.696;10.808;2023-07-29T12:04:37;97836.09;;;26.79;73.19
64080;BME280;51042;49.696;10.808;2023-07-29T12:07:03;97835.06;;;26.54;74.57
64080;BME280;51042;49.696;10.808;2023-07-29T12:09:29;97827.09;;;26.89;73.87
64080;BME280;51042;49.696;10.808;2023-07-29T12:11:55;97837.28;;;27.30;70.63
64080;BME280;51042;49.696;10.808;2023-07-29T12:14:21;97838.41;;;27.49;70.63
64080;BME280;51042;49.696;10.808;2023-07-29T12:16:47;97823.00;;;27.43;71.47
64080;BME280;51042;49.696;10.808;2023-07-29T12:19:13;97824.72;;;27.61;68.72
64080;BME280;51042;49.696;10.808;2023-07-29T12:21:40;97820.78;;;27.56;70.99
64080;BME280;51042;49.696;10.808;2023-07-29T12:24:05;97810.97;;;27.73;68.57
64080;BME280;51042;49.696;10.808;2023-07-29T12:26:30;97809.66;;;27.66;68.10
64080;BME280;51042;49.696;10.808;2023-07-29T12:28:55;97798.78;;;27.55;69.94
64080;BME280;51042;49.696;10.808;2023-07-29T12:31:21;97788.06;;;27.61;69.25
64080;BME280;51042;49.696;10.808;2023-07-29T12:33:47;97795.50;;;27.96;69.57
64080;BME280;51042;49.696;10.808;2023-07-29T12:36:12;97797.75;;;28.06;67.96
64080;BME280;51042;49.696;10.808;2023-07-29T12:38:37;97795.06;;;28.23;64.62
64080;BME280;51042;49.696;10.808;2023-07-29T12:41:02;97801.59;;;27.63;68.86
64080;BME280;51042;49.696;10.808;2023-07-29T12:43:27;97788.81;;;27.61;68.87
64080;BME280;51042;49.696;10.808;2023-07-29T12:45:52;97789.84;;;28.04;65.52
64080;BME280;51042;49.696;10.808;2023-07-29T12:48:18;97793.25;;;27.95;65.54
64080;BME280;51042;49.696;10.808;2023-07-29T12:50:43;97794.38;;;27.92;64.49